WetterOnline ( http://www.wetteronline.de )

Wetter aktuell Malsch

Aktuelles Wetter: Rheinstetten (116m)

6-stündlich | Neueste Meldungen
Ortszeit Temperatur Wetter
Fr, 21.09. 14:00 25.7° C bedeckt
Fr, 21.09. 8:00 13.5° C leicht bewölkt
Fr, 21.09. 2:00 13.7° C wolkig
Do, 20.09. 20:00 23.5° C wolkenlos
Do, 20.09. 14:00 27.8° C leicht bewölkt
Do, 20.09. 8:00 16.7° C wolkig
Do, 20.09. 2:00 16.3° C leicht bewölkt
Mi, 19.09. 20:00 24.8° C wolkenlos
Ortszeit Temperatur Wetter
Fr, 21.09. 18:00 13.8° C Regen
Fr, 21.09. 17:50 13.8° C Regen
Fr, 21.09. 17:40 13.7° C Regen
Fr, 21.09. 17:30 14.7° C leichter Regen
Fr, 21.09. 17:20 14.7° C leichter Regen
Fr, 21.09. 17:10 15.0° C leichter Regen
Fr, 21.09. 17:00 15.6° C Sprühregen
Fr, 21.09. 16:30 22.4° C wolkig
Fr, 21.09. 16:00 25.2° C bedeckt
Fr, 21.09. 15:30 25.4° C bedeckt
Fr, 21.09. 15:00 25.3° C bedeckt
Ortszeit Relative Feuchte Sichtweite
Fr, 21.09. 14:00 48% 25 km
Fr, 21.09. 8:00 88% 14 km
Fr, 21.09. 2:00 85% 20 km
Do, 20.09. 20:00 56% 29 km
Do, 20.09. 14:00 38% 20 km
Do, 20.09. 8:00 83% 17 km
Do, 20.09. 2:00 82% 24 km
Mi, 19.09. 20:00 48% 30 km
Ortszeit Relative Feuchte Sichtweite
Fr, 21.09. 18:00 91% 6 km
Fr, 21.09. 17:50 91% -
Fr, 21.09. 17:40 89% -
Fr, 21.09. 17:30 85% 13 km
Fr, 21.09. 17:20 85% -
Fr, 21.09. 17:10 86% -
Fr, 21.09. 17:00 85% 17 km
Fr, 21.09. 16:30 58% 40 km
Fr, 21.09. 16:00 40% 35 km
Fr, 21.09. 15:30 38% 29 km
Fr, 21.09. 15:00 39% 40 km
Ortszeit Niederschlagsmenge Niederschlagsart
Fr, 21.09. 14:00 0.1 l/m2 in 6 Std. Regen
Fr, 21.09. 8:00 0.0 l/m2 in 12 Std. -
Fr, 21.09. 2:00 0.0 l/m2 in 6 Std. -
Do, 20.09. 20:00 0.0 l/m2 in 12 Std. -
Do, 20.09. 14:00 0.0 l/m2 in 6 Std. -
Do, 20.09. 8:00 0.0 l/m2 in 12 Std. -
Do, 20.09. 2:00 0.0 l/m2 in 6 Std. -
Mi, 19.09. 20:00 0.0 l/m2 in 12 Std. -
Ortszeit Niederschlagsmenge Niederschlagsart
Fr, 21.09. 18:00 1.9 l/m2 in 1 Std. Regen
Fr, 21.09. 17:50 keine Meldung -
Fr, 21.09. 17:40 keine Meldung -
Fr, 21.09. 17:30 0.2 l/m2 in 1 Std. -
Fr, 21.09. 17:20 keine Meldung -
Fr, 21.09. 17:10 keine Meldung -
Fr, 21.09. 17:00 0.1 l/m2 in 1 Std. Regen
Fr, 21.09. 16:30 0.0 l/m2 in 1 Std. -
Fr, 21.09. 16:00 0.0 l/m2 in 1 Std. -
Fr, 21.09. 15:30 0.0 l/m2 in 1 Std. -
Fr, 21.09. 15:00 0.0 l/m2 in 1 Std. -
Ortszeit Stärke Spitze Richtung
km/h Bft. km/h Grad Sektor
Fr, 21.09. 14:00 22 4 41 260° W
Fr, 21.09. 8:00 7 2 11 170° S
Fr, 21.09. 2:00 4 1 11 160° S
Do, 20.09. 20:00 4 1 40 220° SW
Do, 20.09. 14:00 19 3 28 260° W
Do, 20.09. 8:00 6 1 11 200° S
Do, 20.09. 2:00 0 0 11 - -
Mi, 19.09. 20:00 4 1 25 260° W
Ortszeit Stärke Spitze Richtung
km/h Bft. km/h Grad Sektor
Fr, 21.09. 18:00 14 3 50 230° SW
Fr, 21.09. 17:50 14 3 - 230° SW
Fr, 21.09. 17:40 20 4 - 250° W
Fr, 21.09. 17:30 22 4 50 280° W
Fr, 21.09. 17:20 22 4 - 280° W
Fr, 21.09. 17:10 24 4 - 290° W
Fr, 21.09. 17:00 33 5 52 310° NW
Fr, 21.09. 16:30 30 5 48 270° W
Fr, 21.09. 16:00 28 4 44 240° SW
Fr, 21.09. 15:30 25 4 40 240° SW
Fr, 21.09. 15:00 20 4 52 250° W
Ortszeit Untergrenze Bedeckung Gattung
total tief tief mittel hoch
Fr, 21.09. 14:00 3000 m 8/8 8/8 - - -
Fr, 21.09. 8:00 7500 m 5/8 0/8 - - -
Fr, 21.09. 2:00 9000 m 8/8 0/8 - - -
Do, 20.09. 20:00 - 0/8 0/8 - - -
Do, 20.09. 14:00 9000 m 5/8 0/8 - - -
Do, 20.09. 8:00 8400 m 8/8 0/8 - - -
Do, 20.09. 2:00 2400 m 2/8 1/8 - - -
Mi, 19.09. 20:00 - 0/8 0/8 - - -
Ortszeit Bedeckungsgrad in Achtel und Wolkenuntergrenze
Fr, 21.09. 18:00 7(1410m) 7(1500m) 7(2100m)
Fr, 21.09. 17:50 7(1410m) 7(1500m) 7(2100m)
Fr, 21.09. 17:40 7(1320m)
Fr, 21.09. 17:30 1(750m) 6(1230m) 7(2700m)
Fr, 21.09. 17:20 1(750m) 6(1230m) 7(2700m)
Fr, 21.09. 17:10 2(720m) 6(2400m) 7(2700m)
Fr, 21.09. 17:00 5(720m) 7(2700m)
Fr, 21.09. 16:30 2(1500m) 7(3600m) 8(4500m)
Fr, 21.09. 16:00 4(3600m) 8(4500m) 8(5100m)
Fr, 21.09. 15:30 8(3900m) 8(4500m) 8(5100m)
Fr, 21.09. 15:00 8(3600m) 8(4200m)
Ortszeit Luftdruck NN (hPa) Tendenz (hPa in 3 Std.)
Fr, 21.09. 14:00 1010 - 0,6
Fr, 21.09. 8:00 1011 - 1,1
Fr, 21.09. 2:00 1014 - 1,1
Do, 20.09. 20:00 1015 - 1,3
Do, 20.09. 14:00 1018 - 1,8
Do, 20.09. 8:00 1020 + 0,6
Do, 20.09. 2:00 1020 + 0,5
Mi, 19.09. 20:00 1018 0,0
Ortszeit Luftdruck NN (hPa) Tendenz (hPa in 3 Std.)
Fr, 21.09. 18:00 1015 + 4,7
Fr, 21.09. 17:50 1015 keine Meldung
Fr, 21.09. 17:40 1015 keine Meldung
Fr, 21.09. 17:30 1015 + 3,5
Fr, 21.09. 17:20 1015 keine Meldung
Fr, 21.09. 17:10 1014 keine Meldung
Fr, 21.09. 17:00 1013 + 2,9
Fr, 21.09. 16:30 1011 + 0,8
Fr, 21.09. 16:00 1010 - 0,6
Fr, 21.09. 15:30 1010 - 0,6
Fr, 21.09. 15:00 1010 - 0,3
Ortszeit Schneehöhe (cm)
Fr, 21.09. 14:00 -
Fr, 21.09. 8:00 -
Fr, 21.09. 2:00 -
Do, 20.09. 20:00 -
Do, 20.09. 14:00 -
Do, 20.09. 8:00 -
Do, 20.09. 2:00 -
Mi, 19.09. 20:00 -
Ortszeit Schneehöhe (cm)
Fr, 21.09. 18:00 -
Fr, 21.09. 17:50 -
Fr, 21.09. 17:40 -
Fr, 21.09. 17:30 -
Fr, 21.09. 17:20 -
Fr, 21.09. 17:10 -
Fr, 21.09. 17:00 -
Fr, 21.09. 16:30 -
Fr, 21.09. 16:00 -
Fr, 21.09. 15:30 -
Fr, 21.09. 15:00 -
Link zu dieser Seite / Seite empfehlen

Das Wetter in ...